Weather History for Boone, NC

Change the Weather History Date:

Sunday, April 28, 2013

  Actual Average (KGEV) Record (KGEV)
Temperature  
Mean Temperature 48 °F -  
Max Temperature 50 °F 66 °F 81 °F (1981)
Min Temperature 45 °F 41 °F 24 °F (1993)
Degree Days  
Heating Degree Days 18    
Moisture  
Dew Point 47 °F    
Average Humidity 96    
Maximum Humidity 100    
Minimum Humidity 75    
Precipitation  
Precipitation 0.81 in - - ()
Sea Level Pressure  
Sea Level Pressure 30.17 in    
Wind  
Wind Speed 3 mph (SE)    
Max Wind Speed 17 mph    
Max Gust Speed 28 mph    
Visibility 8 miles    
Events Rain    
Averages and records for this station are not official NWS values.
T = Trace of Precipitation, MM = Missing Value Source: NWS Daily Summary

Daily Weather History Graph

Daily Weather History Graph

Search for Another Location

Airport:

Trip Planner

Search our weather history database for the weather conditions in past years. The results will help you decide how hot, cold, wet, or windy it might be!

Date:

Astronomy

Apr. 28, 2013 Rise Set
Actual Time 6:36 AM EDT 8:11 PM EDT
Civil Twilight 6:09 AM EDT 8:39 PM EDT
Nautical Twilight 5:36 AM EDT 9:12 PM EDT
Astronomical Twilight 5:02 AM EDT 9:47 PM EDT
Moon 11:37 PM EDT (4/28) 8:55 AM EDT (4/28)
Length of Visible Light 14h 29m
Length of Day
13h 35m
Waning Gibbous, 89% of the Moon is Illuminated
Apr 28
Waning Gibbous
May 2
Last Quarter
May 9
New
May 18
First Quarter
May 25
Full

Hourly Weather History & Observations

Time (EDT) Temp. Windchill Dew Point Humidity Pressure Visibility Wind Dir Wind Speed Gust Speed Precip Events Conditions
12:15 AM 48.2 °F - 47.5 °F 97% 30.25 in 10.0 mi South 4.6 mph - N/A   Light Drizzle
12:35 AM 47.8 °F - 47.3 °F 98% 30.26 in 10.0 mi Calm Calm - N/A Rain Rain
12:55 AM 48.2 °F - 47.3 °F 97% 30.26 in 10.0 mi Calm Calm - N/A   Overcast
1:15 AM 47.8 °F - 47.3 °F 98% 30.25 in 10.0 mi Calm Calm - N/A   Light Drizzle
1:35 AM 48.2 °F - 47.3 °F 97% 30.24 in 10.0 mi Calm Calm - N/A   Overcast
1:55 AM 47.7 °F - 46.9 °F 97% 30.23 in 10.0 mi SE 4.6 mph - N/A Rain Light Rain
2:15 AM 47.7 °F - 47.1 °F 98% 30.23 in 7.0 mi Calm Calm - N/A   Overcast
2:35 AM 47.3 °F - 46.8 °F 98% 30.21 in 4.0 mi ESE 4.6 mph - N/A   Overcast
2:55 AM 47.3 °F - 46.6 °F 97% 30.21 in 4.0 mi East 3.5 mph - 0.01 in Rain Light Rain
3:15 AM 47.3 °F - 46.8 °F 98% 30.20 in 5.0 mi ESE 5.8 mph - N/A   Light Drizzle
3:35 AM 47.7 °F - 46.9 °F 97% 30.21 in 10.0 mi SE 8.1 mph - N/A   Overcast
3:55 AM 48.0 °F - 47.1 °F 97% 30.21 in 10.0 mi ESE 3.5 mph - N/A   Light Drizzle
4:15 AM 47.5 °F - 45.0 °F 91% 30.21 in 7.0 mi South 9.2 mph 27.6 mph N/A   Mostly Cloudy
4:35 AM 47.5 °F - 44.8 °F 90% 30.19 in 10.0 mi North 3.5 mph - N/A   Mostly Cloudy
4:55 AM 47.8 °F - 44.4 °F 88% 30.20 in 10.0 mi Calm Calm - N/A   Overcast
5:15 AM 47.5 °F - 39.7 °F 75% 30.20 in 10.0 mi SE 3.5 mph - N/A   Overcast
5:35 AM 47.3 °F - 41.2 °F 79% 30.20 in 10.0 mi ESE 4.6 mph - N/A   Overcast
5:55 AM 47.1 °F - 41.0 °F 79% 30.19 in 10.0 mi East 5.8 mph - N/A   Overcast
6:15 AM 47.3 °F - 41.4 °F 80% 30.19 in 10.0 mi Calm Calm - N/A   Overcast
6:35 AM 46.4 °F 43.5 °F 42.4 °F 86% 30.19 in 10.0 mi East 5.8 mph - N/A   Drizzle
6:55 AM 46.4 °F 43.5 °F 43.3 °F 89% 30.18 in 10.0 mi SE 5.8 mph - N/A   Overcast
7:15 AM 46.4 °F 45.2 °F 42.6 °F 87% 30.20 in 10.0 mi South 3.5 mph - N/A   Overcast
7:35 AM 46.4 °F 45.2 °F 42.8 °F 87% 30.21 in 10.0 mi SE 3.5 mph - N/A   Overcast
7:55 AM 46.6 °F - 42.1 °F 84% 30.21 in 10.0 mi South 4.6 mph - N/A   Overcast
8:15 AM 46.4 °F 42.4 °F 41.4 °F 83% 30.21 in 10.0 mi SE 8.1 mph - N/A   Overcast
8:35 AM 45.3 °F 43.0 °F 43.7 °F 94% 30.21 in 5.0 mi ESE 4.6 mph - 0.01 in Rain Rain
9:15 AM 45.5 °F 44.2 °F 45.0 °F 98% 30.23 in 7.0 mi North 3.5 mph - 0.01 in Rain Rain
9:35 AM 45.7 °F - 44.8 °F 97% 30.23 in 2.0 mi Calm Calm - 0.06 in Rain Rain
9:55 AM 45.7 °F 43.4 °F 45.1 °F 98% 30.23 in 5.0 mi North 4.6 mph - 0.06 in Rain Rain
10:15 AM 45.9 °F - 45.1 °F 97% 30.22 in 7.0 mi Calm Calm - N/A Rain Rain
10:35 AM 45.5 °F 41.8 °F 45.0 °F 98% 30.24 in 2.0 mi WNW 6.9 mph - 0.03 in Rain Heavy Rain
10:55 AM 45.3 °F - 45.0 °F 99% 30.23 in 1.5 mi Calm Calm - 0.13 in Rain Heavy Rain
11:15 AM 45.1 °F 37.9 °F 45.1 °F 100% 30.17 in 2.5 mi SE 17.3 mph 21.9 mph 0.04 in Rain Rain
11:35 AM 47.3 °F - 46.0 °F 95% 30.21 in 7.0 mi NNE 5.8 mph - 0.05 in Rain Light Rain
11:55 AM 47.5 °F - 46.9 °F 98% 30.21 in 7.0 mi Calm Calm - 0.06 in Rain Rain
12:15 PM 48.2 °F - 47.3 °F 97% 30.21 in 4.0 mi Calm Calm - 0.02 in Rain Rain
12:35 PM 47.8 °F - 47.5 °F 99% 30.21 in 2.5 mi Calm Calm - 0.08 in Rain Rain
12:55 PM 47.5 °F - 47.3 °F 99% 30.22 in 1.8 mi Calm Calm - 0.16 in Rain Heavy Rain
1:15 PM 47.3 °F - 47.3 °F 100% 30.21 in 1.8 mi Calm Calm - 0.06 in Rain Heavy Rain
1:35 PM 47.7 °F - 47.7 °F 100% 30.19 in 3.0 mi Calm Calm - 0.12 in Rain Rain
1:55 PM 48.4 °F - 48.4 °F 100% 30.18 in 5.0 mi Calm Calm - 0.16 in Rain Rain
2:15 PM 48.9 °F - 48.9 °F 100% 30.17 in 7.0 mi Calm Calm - 0.02 in Rain Light Rain
2:35 PM 49.5 °F - 49.5 °F 100% 30.17 in 7.0 mi Calm Calm - 0.03 in Rain Light Rain
2:55 PM 49.8 °F - 49.8 °F 100% 30.16 in 7.0 mi Calm Calm - 0.04 in Rain Light Rain
3:15 PM 50.0 °F - 50.0 °F 100% 30.15 in 10.0 mi SE 4.6 mph - 0.01 in Rain Light Rain
3:35 PM 49.5 °F - 49.5 °F 100% 30.14 in 10.0 mi Calm Calm - 0.02 in Rain Rain
3:55 PM 49.1 °F - 49.1 °F 100% 30.14 in 7.0 mi SE 5.8 mph - 0.03 in Rain Light Rain
4:15 PM 48.7 °F - 48.7 °F 100% 30.14 in 7.0 mi Calm Calm - 0.01 in Rain Light Rain
4:35 PM 49.3 °F - 49.3 °F 100% 30.12 in 7.0 mi ESE 3.5 mph - 0.02 in Rain Light Rain
4:55 PM 49.5 °F - 49.5 °F 100% 30.11 in 10.0 mi ESE 4.6 mph - 0.03 in   Drizzle
5:15 PM 48.6 °F - 48.6 °F 100% 30.11 in 0.8 mi ESE 5.8 mph - N/A   Drizzle
5:35 PM 49.1 °F - 49.1 °F 100% 30.10 in 7.0 mi ESE 3.5 mph - 0.01 in Rain Rain
5:55 PM 49.3 °F - 49.3 °F 100% 30.10 in 10.0 mi SSE 3.5 mph - 0.01 in Rain Rain
6:15 PM 49.3 °F - 49.3 °F 100% 30.10 in 10.0 mi SSE 5.8 mph - 0.01 in   Drizzle
6:35 PM 49.1 °F - 49.1 °F 100% 30.10 in 10.0 mi Calm Calm - 0.01 in   Drizzle
6:55 PM 48.6 °F - 48.6 °F 100% 30.11 in 10.0 mi Calm Calm - 0.01 in Rain Rain
7:15 PM 48.9 °F - 48.9 °F 100% 30.12 in 4.0 mi Calm Calm - 0.02 in Rain Rain
7:35 PM 48.6 °F - 48.6 °F 100% 30.10 in 5.0 mi SE 6.9 mph - 0.05 in Rain Rain
7:55 PM 48.4 °F - 48.4 °F 100% 30.08 in 10.0 mi South 12.7 mph 19.6 mph 0.07 in Rain Rain
8:15 PM 49.3 °F - 49.1 °F 99% 30.09 in 10.0 mi Calm Calm - N/A   Drizzle
8:35 PM 49.1 °F - 49.1 °F 100% 30.08 in 10.0 mi SE 5.8 mph - 0.01 in Rain Light Rain
8:55 PM 49.3 °F - 49.3 °F 100% 30.06 in 10.0 mi SSE 11.5 mph 16.1 mph 0.01 in Rain Rain
9:15 PM 48.7 °F - 48.7 °F 100% 30.06 in 10.0 mi ESE 5.8 mph - N/A   Light Drizzle
9:35 PM 48.7 °F - 48.7 °F 100% 30.07 in 10.0 mi SE 12.7 mph 18.4 mph N/A   Drizzle
9:55 PM 48.2 °F - 48.2 °F 100% 30.05 in 10.0 mi SE 13.8 mph 19.6 mph 0.01 in Rain Light Rain
10:15 PM 48.2 °F - 48.2 °F 100% 30.04 in 10.0 mi ESE 4.6 mph 16.1 mph 0.01 in Rain Light Rain
10:35 PM 48.6 °F - 48.6 °F 100% 30.08 in 10.0 mi North 5.8 mph - 0.01 in   Overcast
10:55 PM 48.7 °F - 48.7 °F 100% 30.09 in 7.0 mi Calm Calm - 0.01 in   Overcast
11:15 PM 49.1 °F - 49.1 °F 100% 30.09 in 2.0 mi Calm Calm - N/A   Overcast
11:55 PM 49.1 °F - 49.1 °F 100% 30.09 in 3.0 mi Calm Calm - N/A   Overcast